| time (UTC) | temp C | wind direction | speed KPH | gust KPH | rain 1hr cm | rain 24hr cm | rain mn cm | humidity % | barometer mb |
| 20260510165040 | 17 | 188 | 4.8 | 12.9 | 0.00 | 0.00 | 0.00 | 30 | 1020.3 |
| 20260510164538 | 17 | 193 | 6.4 | 12.9 | 0.00 | 0.00 | 0.00 | 30 | 1020.4 |
| 20260510164036 | 17 | 134 | 4.8 | 12.9 | 0.00 | 0.00 | 0.00 | 30 | 1020.3 |
| 20260510163536 | 16 | 120 | 6.4 | 12.9 | 0.00 | 0.00 | 0.00 | 30 | 1020.4 |
| 20260510163035 | 16 | 119 | 3.2 | 11.3 | 0.00 | 0.00 | 0.00 | 30 | 1020.5 |
| 20260510162533 | 16 | 101 | 6.4 | 17.7 | 0.00 | 0.00 | 0.00 | 32 | 1020.4 |
| 20260510162034 | 16 | 184 | 9.7 | 19.3 | 0.00 | 0.00 | 0.00 | 32 | 1020.6 |
| 20260510161032 | 15 | 126 | 4.8 | 16.1 | 0.00 | 0.00 | 0.00 | 32 | 1020.8 |
| 20260510160531 | 15 | 132 | 8.0 | 16.1 | 0.00 | 0.00 | 0.00 | 33 | 1020.7 |
| 20260510160030 | 15 | 136 | 3.2 | 14.5 | 0.00 | 0.00 | 0.00 | 32 | 1020.8 |
| 20260510155529 | 15 | 158 | 4.8 | 14.5 | 0.00 | 0.00 | 0.00 | 35 | 1020.8 |
| 20260510155028 | 15 | 147 | 6.4 | 17.7 | 0.00 | 0.00 | 0.00 | 35 | 1020.9 |
| 20260510154527 | 14 | 158 | 3.2 | 14.5 | 0.00 | 0.00 | 0.00 | 36 | 1020.8 |
| 20260510154026 | 14 | 155 | 6.4 | 14.5 | 0.00 | 0.00 | 0.00 | 36 | 1021.0 |
| 20260510153525 | 14 | 132 | 6.4 | 16.1 | 0.00 | 0.00 | 0.00 | 37 | 1021.0 |
| 20260510153024 | 13 | 123 | 9.7 | 16.1 | 0.00 | 0.00 | 0.00 | 37 | 1021.0 |
| 20260510152524 | 13 | 198 | 6.4 | 14.5 | 0.00 | 0.00 | 0.00 | 37 | 1020.9 |
| 20260510152020 | 13 | 126 | 6.4 | 16.1 | 0.00 | 0.00 | 0.00 | 38 | 1020.9 |
| 20260510151028 | 13 | 131 | 8.0 | 16.1 | 0.00 | 0.00 | 0.00 | 39 | 1021.1 |
| 20260510150525 | 12 | 175 | 3.2 | 14.5 | 0.00 | 0.00 | 0.00 | 40 | 1021.2 |
| 20260510150026 | 12 | 138 | 6.4 | 14.5 | 0.00 | 0.00 | 0.00 | 39 | 1021.1 |
| 20260510145523 | 12 | 150 | 4.8 | 16.1 | 0.00 | 0.00 | 0.00 | 39 | 1021.1 |
| 20260510145022 | 12 | 171 | 8.0 | 16.1 | 0.00 | 0.00 | 0.00 | 40 | 1021.1 |
| 20260510144535 | 11 | 133 | 6.4 | 16.1 | 0.00 | 0.00 | 0.00 | 41 | 1021.1 |
| 20260510144020 | 11 | 193 | 6.4 | 14.5 | 0.00 | 0.00 | 0.00 | 42 | 1021.1 |
| 20260510143520 | 11 | 142 | 4.8 | 14.5 | 0.00 | 0.00 | 0.00 | 41 | 1021.3 |
| 20260510143033 | 11 | 139 | 6.4 | 14.5 | 0.00 | 0.00 | 0.00 | 42 | 1021.2 |
| 20260510142517 | 11 | 167 | 4.8 | 14.5 | 0.00 | 0.00 | 0.00 | 42 | 1021.2 |
| 20260510142017 | 11 | 162 | 8.0 | 14.5 | 0.00 | 0.00 | 0.00 | 42 | 1021.2 |
| 20260510141009 | 10 | 148 | 6.4 | 12.9 | 0.00 | 0.00 | 0.00 | 42 | 1021.3 |
| 20260510140510 | 10 | 140 | 4.8 | 11.3 | 0.00 | 0.00 | 0.00 | 44 | 1021.3 |
| 20260510140007 | 10 | 171 | 4.8 | 11.3 | 0.00 | 0.00 | 0.00 | 44 | 1021.4 |
| 20260510135509 | 10 | 132 | 3.2 | 6.4 | 0.00 | 0.00 | 0.00 | 46 | 1021.3 |
| 20260510135005 | 9 | 148 | 3.2 | 8.0 | 0.00 | 0.00 | 0.00 | 46 | 1021.2 |
| 20260510134505 | 9 | 149 | 1.6 | 8.0 | 0.00 | 0.00 | 0.00 | 47 | 1021.3 |
| 20260510134005 | 8 | 145 | 3.2 | 8.0 | 0.00 | 0.00 | 0.00 | 47 | 1021.3 |
| 20260510133504 | 8 | 146 | 4.8 | 6.4 | 0.00 | 0.00 | 0.00 | 46 | 1021.3 |
| 20260510133004 | 8 | 146 | 1.6 | 4.8 | 0.00 | 0.00 | 0.00 | 47 | 1021.2 |
| 20260510132504 | 8 | 146 | 1.6 | 8.0 | 0.00 | 0.00 | 0.00 | 48 | 1021.1 |
| 20260510132004 | 8 | 182 | 3.2 | 8.0 | 0.00 | 0.00 | 0.00 | 47 | 1021.1 |
| 20260510131003 | 8 | 138 | 4.8 | 8.0 | 0.00 | 0.00 | 0.00 | 46 | 1021.0 |
| 20260510130502 | 8 | 132 | 4.8 | 6.4 | 0.00 | 0.00 | 0.00 | 46 | 1021.0 |
| 20260510130003 | 8 | 132 | 3.2 | 6.4 | 0.00 | 0.00 | 0.00 | 47 | 1021.0 |
| 20260510125501 | 8 | 132 | 3.2 | 8.0 | 0.00 | 0.00 | 0.00 | 47 | 1020.9 |
| 20260510125002 | 8 | 132 | 3.2 | 11.3 | 0.00 | 0.00 | 0.00 | 48 | 1021.0 |
| 20260510124504 | 8 | 132 | 4.8 | 11.3 | 0.00 | 0.00 | 0.00 | 47 | 1021.0 |
| 20260510124002 | 8 | 130 | 3.2 | 8.0 | 0.00 | 0.00 | 0.00 | 48 | 1021.0 |
| 20260510123503 | 8 | 130 | 3.2 | 8.0 | 0.00 | 0.00 | 0.00 | 48 | 1021.1 |
| 20260510123101 | 8 | 134 | 4.8 | 12.9 | 0.00 | 0.00 | 0.00 | 48 | 1021.0 |
| 20260510122604 | 7 | 128 | 6.4 | 12.9 | 0.00 | 0.00 | 0.00 | 49 | 1020.9 |
| 20260510122500 | 7 | 130 | 8.0 | 12.9 | 0.00 | 0.00 | 0.00 | 49 | 1021.0 |
| 20260510122100 | 7 | 128 | 3.2 | 8.0 | 0.00 | 0.00 | 0.00 | 51 | 1021.0 |
| 20260510121100 | 7 | 51 | 0.0 | 0.0 | 0.00 | 0.00 | 0.00 | 51 | 1020.9 |
| 20260510120600 | 7 | 51 | 0.0 | 0.0 | 0.00 | 0.00 | 0.00 | 51 | 1021.0 |
| 20260510120059 | 7 | 50 | 0.0 | 0.0 | 0.00 | 0.00 | 0.00 | 51 | 1021.0 |
| 20260510115558 | 7 | 50 | 0.0 | 0.0 | 0.00 | 0.00 | 0.00 | 51 | 1021.1 |
| 20260510115059 | 6 | 50 | 0.0 | 0.0 | 0.00 | 0.00 | 0.00 | 51 | 1021.0 |
| 20260510114558 | 6 | 50 | 0.0 | 4.8 | 0.00 | 0.00 | 0.00 | 50 | 1020.8 |
| 20260510114059 | 6 | 51 | 0.0 | 4.8 | 0.00 | 0.00 | 0.00 | 50 | 1020.7 |
| 20260510113559 | 6 | 29 | 0.0 | 3.2 | 0.00 | 0.00 | 0.00 | 51 | 1020.8 |
| 20260510113103 | 6 | 27 | 0.0 | 0.0 | 0.00 | 0.00 | 0.00 | 51 | 1021.0 |
| 20260510112557 | 6 | 27 | 0.0 | 0.0 | 0.00 | 0.00 | 0.00 | 50 | 1020.9 |
| 20260510112057 | 6 | 27 | 0.0 | 0.0 | 0.00 | 0.00 | 0.00 | 49 | 1021.0 |
| 20260510111059 | 6 | 27 | 0.0 | 0.0 | 0.00 | 0.00 | 0.00 | 48 | 1020.8 |
| 20260510110602 | 6 | 27 | 0.0 | 0.0 | 0.00 | 0.00 | 0.00 | 49 | 1020.8 |
| 20260510110059 | 6 | 27 | 0.0 | 0.0 | 0.00 | 0.00 | 0.00 | 49 | 1020.8 |
| 20260510105602 | 6 | 27 | 0.0 | 0.0 | 0.00 | 0.00 | 0.00 | 49 | 1020.9 |
| 20260510105059 | 6 | 27 | 0.0 | 0.0 | 0.00 | 0.00 | 0.00 | 49 | 1020.8 |
| 20260510104604 | 6 | 27 | 0.0 | 0.0 | 0.00 | 0.00 | 0.00 | 49 | 1020.8 |
| 20260510104059 | 6 | 27 | 0.0 | 0.0 | 0.00 | 0.00 | 0.00 | 49 | 1020.6 |
| 20260510103557 | 5 | 27 | 0.0 | 0.0 | 0.00 | 0.00 | 0.00 | 49 | 1020.8 |
| 20260510103057 | 5 | 27 | 0.0 | 0.0 | 0.00 | 0.00 | 0.00 | 50 | 1020.8 |
| 20260510102559 | 5 | 27 | 0.0 | 0.0 | 0.00 | 0.00 | 0.00 | 50 | 1020.8 |
| 20260510102057 | 5 | 27 | 0.0 | 0.0 | 0.00 | 0.00 | 0.00 | 51 | 1020.7 |
| 20260510101054 | 5 | 27 | 0.0 | 0.0 | 0.00 | 0.00 | 0.00 | 51 | 1020.7 |
| 20260510100559 | 5 | 27 | 0.0 | 0.0 | 0.00 | 0.00 | 0.00 | 51 | 1020.9 |
| 20260510100054 | 5 | 27 | 0.0 | 0.0 | 0.00 | 0.00 | 0.00 | 51 | 1020.8 |
| 20260510095554 | 5 | 27 | 0.0 | 0.0 | 0.00 | 0.00 | 0.00 | 50 | 1020.7 |
| 20260510095052 | 5 | 27 | 0.0 | 0.0 | 0.00 | 0.00 | 0.00 | 49 | 1020.8 |
| 20260510094602 | 5 | 27 | 0.0 | 0.0 | 0.00 | 0.00 | 0.00 | 49 | 1020.7 |
| 20260510094054 | 5 | 27 | 0.0 | 0.0 | 0.00 | 0.00 | 0.00 | 50 | 1020.6 |
| 20260510093551 | 5 | 27 | 0.0 | 0.0 | 0.00 | 0.00 | 0.00 | 50 | 1020.6 |
| 20260510093111 | 6 | 27 | 0.0 | 0.0 | 0.00 | 0.00 | 0.00 | 49 | 1020.6 |
| 20260510092548 | 6 | 27 | 0.0 | 0.0 | 0.00 | 0.00 | 0.00 | 49 | 1020.4 |
| 20260510092046 | 6 | 27 | 0.0 | 0.0 | 0.00 | 0.00 | 0.00 | 48 | 1020.4 |
| 20260510091047 | 7 | 27 | 0.0 | 0.0 | 0.00 | 0.00 | 0.00 | 48 | 1020.4 |
| 20260510090544 | 7 | 27 | 0.0 | 0.0 | 0.00 | 0.00 | 0.00 | 46 | 1020.1 |
| 20260510090043 | 7 | 27 | 0.0 | 0.0 | 0.00 | 0.00 | 0.00 | 46 | 1020.3 |
| 20260510090013 | 7 | 27 | 0.0 | 0.0 | 0.00 | 0.00 | 0.00 | 45 | 1020.3 |
| 20260510085542 | 8 | 27 | 0.0 | 0.0 | 0.00 | 0.00 | 0.00 | 45 | 1020.3 |
| 20260510085041 | 8 | 27 | 0.0 | 0.0 | 0.00 | 0.00 | 0.00 | 45 | 1020.2 |
| 20260510084541 | 8 | 27 | 0.0 | 0.0 | 0.00 | 0.00 | 0.00 | 45 | 1020.1 |
| 20260510084044 | 8 | 27 | 0.0 | 0.0 | 0.00 | 0.00 | 0.00 | 45 | 1020.0 |
| 20260510083544 | 8 | 27 | 0.0 | 0.0 | 0.00 | 0.00 | 0.00 | 44 | 1019.9 |
| 20260510083042 | 8 | 27 | 0.0 | 0.0 | 0.00 | 0.00 | 0.00 | 44 | 1020.0 |
| 20260510082539 | 8 | 27 | 0.0 | 0.0 | 0.00 | 0.00 | 0.00 | 44 | 1020.1 |
| 20260510082039 | 8 | 27 | 0.0 | 0.0 | 0.00 | 0.00 | 0.00 | 44 | 1020.1 |
| 20260510081039 | 8 | 27 | 0.0 | 0.0 | 0.00 | 0.00 | 0.00 | 46 | 1020.2 |
| 20260510080538 | 8 | 27 | 0.0 | 0.0 | 0.00 | 0.00 | 0.00 | 44 | 1020.2 |
| 20260510080038 | 8 | 27 | 0.0 | 0.0 | 0.00 | 0.00 | 0.00 | 44 | 1020.0 |
| 20260510075537 | 8 | 27 | 0.0 | 0.0 | 0.00 | 0.00 | 0.00 | 43 | 1020.0 |
| 20260510075041 | 8 | 27 | 0.0 | 0.0 | 0.00 | 0.00 | 0.00 | 43 | 1020.1 |
| 20260510074537 | 8 | 27 | 0.0 | 0.0 | 0.00 | 0.00 | 0.00 | 45 | 1020.1 |
| 20260510074037 | 8 | 27 | 0.0 | 0.0 | 0.00 | 0.00 | 0.00 | 45 | 1020.1 |
| 20260510073538 | 8 | 27 | 0.0 | 0.0 | 0.00 | 0.00 | 0.00 | 44 | 1020.2 |
| 20260510073044 | 8 | 27 | 0.0 | 3.2 | 0.00 | 0.00 | 0.00 | 45 | 1020.2 |
| 20260510072535 | 8 | 27 | 1.6 | 3.2 | 0.00 | 0.00 | 0.00 | 45 | 1020.0 |
| 20260510072034 | 8 | 27 | 0.0 | 0.0 | 0.00 | 0.00 | 0.00 | 45 | 1020.0 |
| 20260510071035 | 8 | 27 | 1.6 | 3.2 | 0.00 | 0.00 | 0.00 | 44 | 1020.0 |
| 20260510070535 | 8 | 27 | 0.0 | 1.6 | 0.00 | 0.00 | 0.00 | 43 | 1019.9 |
| 20260510070035 | 8 | 27 | 0.0 | 1.6 | 0.00 | 0.00 | 0.00 | 44 | 1019.9 |
| 20260510065534 | 8 | 27 | 0.0 | 0.0 | 0.00 | 0.00 | 0.00 | 43 | 1020.0 |
| 20260510065034 | 9 | 27 | 0.0 | 3.2 | 0.00 | 0.00 | 0.00 | 43 | 1020.0 |
| 20260510064533 | 9 | 27 | 0.0 | 4.8 | 0.00 | 0.00 | 0.00 | 43 | 1020.0 |
| 20260510064032 | 9 | 27 | 0.0 | 4.8 | 0.00 | 0.00 | 0.00 | 43 | 1020.1 |
| 20260510063530 | 9 | 27 | 1.6 | 4.8 | 0.00 | 0.00 | 0.00 | 42 | 1020.1 |
| 20260510063031 | 10 | 27 | 0.0 | 6.4 | 0.00 | 0.00 | 0.00 | 42 | 1019.9 |
| 20260510062530 | 10 | 27 | 0.0 | 3.2 | 0.00 | 0.00 | 0.00 | 42 | 1019.8 |
| 20260510062029 | 10 | 27 | 0.0 | 4.8 | 0.00 | 0.00 | 0.00 | 43 | 1019.9 |
| 20260510061026 | 9 | 20 | 0.0 | 4.8 | 0.00 | 0.00 | 0.00 | 43 | 1019.9 |
| 20260510060526 | 9 | 19 | 1.6 | 4.8 | 0.00 | 0.00 | 0.00 | 43 | 1019.8 |
| 20260510060026 | 9 | 19 | 1.6 | 4.8 | 0.00 | 0.00 | 0.00 | 44 | 1019.6 |
| 20260510055525 | 9 | 19 | 1.6 | 6.4 | 0.00 | 0.00 | 0.00 | 44 | 1019.5 |
| 20260510055026 | 9 | 19 | 3.2 | 6.4 | 0.00 | 0.00 | 0.00 | 44 | 1019.6 |
| 20260510054525 | 8 | 34 | 3.2 | 6.4 | 0.00 | 0.00 | 0.00 | 45 | 1019.5 |
| 20260510054024 | 8 | 34 | 0.0 | 3.2 | 0.00 | 0.00 | 0.00 | 47 | 1019.4 |
| 20260510053523 | 8 | 34 | 0.0 | 1.6 | 0.00 | 0.00 | 0.00 | 48 | 1019.3 |
| 20260510053044 | 8 | 34 | 0.0 | 4.8 | 0.00 | 0.00 | 0.00 | 47 | 1019.2 |
| 20260510052525 | 8 | 34 | 0.0 | 4.8 | 0.00 | 0.00 | 0.00 | 47 | 1019.1 |
| 20260510052022 | 8 | 34 | 1.6 | 4.8 | 0.00 | 0.00 | 0.00 | 47 | 1018.9 |
| 20260510051520 | 7 | 34 | 0.0 | 0.0 | 0.00 | 0.00 | 0.00 | 49 | 1018.6 |
| 20260510051021 | 7 | 34 | 0.0 | 0.0 | 0.00 | 0.00 | 0.00 | 49 | 1018.5 |
| 20260510050519 | 7 | 34 | 0.0 | 0.0 | 0.00 | 0.00 | 0.00 | 50 | 1018.6 |
| 20260510050019 | 7 | 34 | 0.0 | 0.0 | 0.00 | 0.00 | 0.00 | 50 | 1018.5 |
| 20260510045520 | 7 | 34 | 0.0 | 0.0 | 0.00 | 0.00 | 0.00 | 50 | 1018.5 |
| 20260510045020 | 7 | 34 | 0.0 | 0.0 | 0.00 | 0.00 | 0.00 | 48 | 1018.3 |
| 20260510044022 | 8 | 34 | 0.0 | 0.0 | 0.00 | 0.00 | 0.00 | 49 | 1018.3 |
| 20260510043521 | 8 | 34 | 0.0 | 0.0 | 0.00 | 0.00 | 0.00 | 49 | 1018.2 |
| 20260510043036 | 8 | 34 | 0.0 | 3.2 | 0.00 | 0.00 | 0.00 | 48 | 1018.2 |
| 20260510042521 | 8 | 34 | 0.0 | 4.8 | 0.00 | 0.00 | 0.00 | 47 | 1018.2 |
| 20260510042021 | 8 | 34 | 1.6 | 4.8 | 0.00 | 0.00 | 0.00 | 46 | 1018.1 |
| 20260510041525 | 8 | 34 | 0.0 | 3.2 | 0.00 | 0.00 | 0.00 | 47 | 1018.1 |
| 20260510041020 | 8 | 34 | 0.0 | 3.2 | 0.00 | 0.00 | 0.00 | 47 | 1018.1 |
| 20260510040519 | 8 | 34 | 0.0 | 0.0 | 0.00 | 0.00 | 0.00 | 48 | 1018.1 |
| 20260510040033 | 8 | 34 | 0.0 | 0.0 | 0.00 | 0.00 | 0.00 | 48 | 1018.1 |
| 20260510035519 | 8 | 34 | 0.0 | 0.0 | 0.00 | 0.00 | 0.00 | 48 | 1017.9 |
| 20260510035018 | 8 | 34 | 0.0 | 0.0 | 0.00 | 0.00 | 0.00 | 48 | 1017.9 |
| 20260510034017 | 8 | 34 | 0.0 | 1.6 | 0.00 | 0.00 | 0.00 | 47 | 1017.8 |
| 20260510033517 | 8 | 34 | 0.0 | 0.0 | 0.00 | 0.00 | 0.00 | 46 | 1017.7 |
| 20260510033015 | 8 | 34 | 0.0 | 3.2 | 0.00 | 0.00 | 0.00 | 47 | 1017.7 |
| 20260510032515 | 8 | 34 | 0.0 | 3.2 | 0.00 | 0.00 | 0.00 | 46 | 1017.6 |
| 20260510032018 | 9 | 34 | 1.6 | 3.2 | 0.00 | 0.00 | 0.00 | 46 | 1017.5 |
| 20260510031518 | 9 | 34 | 1.6 | 4.8 | 0.00 | 0.00 | 0.00 | 45 | 1017.5 |
| 20260510031014 | 9 | 36 | 0.0 | 4.8 | 0.00 | 0.00 | 0.00 | 45 | 1017.3 |
| 20260510030512 | 9 | 40 | 0.0 | 0.0 | 0.00 | 0.00 | 0.00 | 45 | 1017.3 |
| 20260510030012 | 10 | 40 | 0.0 | 0.0 | 0.00 | 0.00 | 0.00 | 44 | 1017.2 |
| 20260510025512 | 10 | 40 | 0.0 | 0.0 | 0.00 | 0.00 | 0.00 | 44 | 1017.2 |
| 20260510025012 | 10 | 40 | 0.0 | 0.0 | 0.00 | 0.00 | 0.00 | 44 | 1017.1 |
| 20260510024019 | 11 | 40 | 0.0 | 0.0 | 0.00 | 0.00 | 0.00 | 42 | 1017.0 |
| 20260510023511 | 11 | 40 | 0.0 | 0.0 | 0.00 | 0.00 | 0.00 | 42 | 1016.9 |
| 20260510023011 | 11 | 41 | 0.0 | 3.2 | 0.00 | 0.00 | 0.00 | 41 | 1016.8 |
| 20260510022512 | 12 | 41 | 0.0 | 3.2 | 0.00 | 0.00 | 0.00 | 40 | 1016.7 |
| 20260510022012 | 12 | 41 | 1.6 | 3.2 | 0.00 | 0.00 | 0.00 | 39 | 1016.8 |
| 20260510021522 | 13 | 41 | 1.6 | 4.8 | 0.00 | 0.00 | 0.00 | 38 | 1016.6 |
| 20260510021010 | 13 | 41 | 1.6 | 12.9 | 0.00 | 0.00 | 0.00 | 38 | 1016.6 |
| 20260510020509 | 13 | 46 | 4.8 | 14.5 | 0.00 | 0.00 | 0.00 | 38 | 1016.5 |
| 20260510020009 | 14 | 360 | 3.2 | 6.4 | 0.00 | 0.00 | 0.00 | 38 | 1016.5 |
| 20260510015509 | 15 | 360 | 0.0 | 3.2 | 0.00 | 0.00 | 0.00 | 38 | 1016.3 |
| 20260510015008 | 15 | 360 | 0.0 | 4.8 | 0.00 | 0.00 | 0.00 | 37 | 1016.2 |
| 20260510014009 | 16 | 360 | 3.2 | 6.4 | 0.00 | 0.00 | 0.00 | 36 | 1015.9 |
| 20260510013511 | 16 | 360 | 3.2 | 6.4 | 0.00 | 0.00 | 0.00 | 36 | 1016.1 |
| 20260510013010 | 16 | 17 | 3.2 | 6.4 | 0.00 | 0.00 | 0.00 | 36 | 1016.0 |
| 20260510012508 | 16 | 326 | 1.6 | 6.4 | 0.00 | 0.00 | 0.00 | 36 | 1015.9 |
| 20260510012008 | 16 | 308 | 1.6 | 6.4 | 0.00 | 0.00 | 0.00 | 36 | 1015.9 |
| 20260510011508 | 16 | 305 | 3.2 | 12.9 | 0.00 | 0.00 | 0.00 | 36 | 1016.1 |
| 20260510011007 | 17 | 308 | 4.8 | 12.9 | 0.00 | 0.00 | 0.00 | 35 | 1015.8 |
| 20260510010507 | 17 | 311 | 4.8 | 14.5 | 0.00 | 0.00 | 0.00 | 34 | 1016.0 |
| 20260510010008 | 17 | 315 | 3.2 | 14.5 | 0.00 | 0.00 | 0.00 | 34 | 1015.8 |
| 20260510005509 | 17 | 318 | 1.6 | 9.7 | 0.00 | 0.00 | 0.00 | 34 | 1015.8 |
| 20260510005008 | 18 | 355 | 3.2 | 14.5 | 0.00 | 0.00 | 0.00 | 33 | 1015.9 |
| 20260510004007 | 18 | 308 | 6.4 | 17.7 | 0.00 | 0.00 | 0.00 | 33 | 1015.7 |
| 20260510003506 | 18 | 333 | 8.0 | 14.5 | 0.00 | 0.00 | 0.00 | 32 | 1015.6 |
| 20260510003006 | 18 | 305 | 4.8 | 12.9 | 0.00 | 0.00 | 0.00 | 33 | 1015.7 |
| 20260510002506 | 18 | 325 | 4.8 | 14.5 | 0.00 | 0.00 | 0.00 | 33 | 1015.5 |
| 20260510002008 | 18 | 331 | 6.4 | 14.5 | 0.00 | 0.00 | 0.00 | 34 | 1015.5 |
| 20260510001508 | 18 | 283 | 4.8 | 12.9 | 0.00 | 0.00 | 0.00 | 34 | 1015.5 |
| 20260510001005 | 17 | 301 | 3.2 | 12.9 | 0.00 | 0.00 | 0.00 | 34 | 1015.4 |
| 20260510000505 | 17 | 315 | 3.2 | 14.5 | 0.00 | 0.00 | 0.00 | 33 | 1015.5 |
| 20260510000005 | 18 | 318 | 6.4 | 14.5 | 0.00 | 0.00 | 0.00 | 33 | 1015.6 |
| 20260509235505 | 18 | 317 | 6.4 | 17.7 | 0.00 | 0.00 | 0.00 | 33 | 1015.4 |
| 20260509235005 | 18 | 322 | 11.3 | 20.9 | 0.00 | 0.00 | 0.00 | 32 | 1015.4 |
| 20260509234002 | 18 | 298 | 9.7 | 19.3 | 0.00 | 0.00 | 0.00 | 32 | 1015.3 |
| 20260509233501 | 18 | 268 | 6.4 | 16.1 | 0.00 | 0.00 | 0.00 | 32 | 1015.3 |
| 20260509233001 | 18 | 273 | 8.0 | 17.7 | 0.00 | 0.00 | 0.00 | 32 | 1015.5 |
| 20260509232501 | 18 | 317 | 8.0 | 17.7 | 0.00 | 0.00 | 0.00 | 32 | 1015.3 |
| 20260509232000 | 18 | 286 | 6.4 | 16.1 | 0.00 | 0.00 | 0.00 | 33 | 1015.3 |
| 20260509231502 | 18 | 12 | 3.2 | 14.5 | 0.00 | 0.00 | 0.00 | 33 | 1015.4 |
| 20260509231100 | 18 | 327 | 6.4 | 14.5 | 0.00 | 0.00 | 0.00 | 33 | 1015.4 |
| 20260509230603 | 18 | 317 | 4.8 | 14.5 | 0.00 | 0.00 | 0.00 | 33 | 1015.4 |
| 20260509230100 | 18 | 19 | 6.4 | 17.7 | 0.00 | 0.00 | 0.00 | 33 | 1015.5 |
| 20260509225602 | 18 | 338 | 4.8 | 17.7 | 0.00 | 0.00 | 0.00 | 33 | 1015.3 |
| 20260509225059 | 18 | 346 | 9.7 | 17.7 | 0.00 | 0.00 | 0.00 | 34 | 1015.2 |
| 20260509224100 | 18 | 360 | 6.4 | 16.1 | 0.00 | 0.00 | 0.00 | 33 | 1015.4 |
| 20260509223603 | 18 | 9 | 4.8 | 17.7 | 0.00 | 0.00 | 0.00 | 33 | 1015.4 |
| 20260509223103 | 18 | 303 | 8.0 | 17.7 | 0.00 | 0.00 | 0.00 | 33 | 1015.4 |
| 20260509222605 | 18 | 5 | 8.0 | 16.1 | 0.00 | 0.00 | 0.00 | 32 | 1015.3 |
| 20260509222059 | 18 | 19 | 8.0 | 16.1 | 0.00 | 0.00 | 0.00 | 32 | 1015.3 |
| 20260509221600 | 18 | 300 | 3.2 | 14.5 | 0.00 | 0.00 | 0.00 | 32 | 1015.3 |
| 20260509221100 | 18 | 272 | 6.4 | 22.5 | 0.00 | 0.00 | 0.00 | 32 | 1015.4 |
| 20260509220601 | 18 | 320 | 9.7 | 22.5 | 0.00 | 0.00 | 0.00 | 32 | 1015.3 |
| 20260509215559 | 18 | 321 | 4.8 | 14.5 | 0.00 | 0.00 | 0.00 | 33 | 1015.3 |
| 20260509215059 | 18 | 28 | 4.8 | 16.1 | 0.00 | 0.00 | 0.00 | 32 | 1015.3 |
| 20260509214100 | 18 | 344 | 4.8 | 20.9 | 0.00 | 0.00 | 0.00 | 33 | 1015.4 |
| 20260509213559 | 18 | 339 | 8.0 | 20.9 | 0.00 | 0.00 | 0.00 | 33 | 1015.6 |
| 20260509213103 | 18 | 318 | 6.4 | 19.3 | 0.00 | 0.00 | 0.00 | 34 | 1015.6 |
| 20260509212559 | 18 | 308 | 6.4 | 16.1 | 0.00 | 0.00 | 0.00 | 34 | 1015.6 |
| 20260509212059 | 18 | 24 | 6.4 | 17.7 | 0.00 | 0.00 | 0.00 | 34 | 1015.6 |
| 20260509211559 | 18 | 331 | 11.3 | 24.1 | 0.00 | 0.00 | 0.00 | 34 | 1015.6 |
| 20260509211058 | 18 | 294 | 8.0 | 19.3 | 0.00 | 0.00 | 0.00 | 35 | 1015.4 |
| 20260509210558 | 18 | 330 | 6.4 | 17.7 | 0.00 | 0.00 | 0.00 | 35 | 1015.5 |
| 20260509210107 | 18 | 316 | 6.4 | 19.3 | 0.00 | 0.00 | 0.00 | 36 | 1015.6 |
| 20260509205600 | 18 | 271 | 11.3 | 24.1 | 0.00 | 0.00 | 0.00 | 34 | 1015.6 |
| 20260509205057 | 18 | 310 | 9.7 | 24.1 | 0.00 | 0.00 | 0.00 | 36 | 1015.6 |
| 20260509204055 | 18 | 360 | 6.4 | 19.3 | 0.00 | 0.00 | 0.00 | 36 | 1015.6 |
| 20260509203558 | 18 | 311 | 6.4 | 20.9 | 0.00 | 0.00 | 0.00 | 38 | 1015.6 |
| 20260509203102 | 17 | 279 | 8.0 | 20.9 | 0.00 | 0.00 | 0.00 | 38 | 1015.5 |
| 20260509202552 | 17 | 278 | 6.4 | 20.9 | 0.00 | 0.00 | 0.00 | 39 | 1015.6 |
| 20260509202051 | 17 | 5 | 8.0 | 19.3 | 0.00 | 0.00 | 0.00 | 40 | 1015.6 |
| 20260509201551 | 16 | 24 | 3.2 | 16.1 | 0.00 | 0.00 | 0.00 | 43 | 1015.8 |
| 20260509201052 | 16 | 287 | 8.0 | 16.1 | 0.00 | 0.00 | 0.00 | 41 | 1015.7 |
| 20260509200551 | 16 | 296 | 6.4 | 20.9 | 0.00 | 0.00 | 0.00 | 40 | 1015.6 |
| 20260509200051 | 17 | 321 | 9.7 | 20.9 | 0.00 | 0.00 | 0.00 | 39 | 1015.8 |
| 20260509195550 | 16 | 13 | 6.4 | 19.3 | 0.00 | 0.00 | 0.00 | 40 | 1015.8 |
| 20260509195048 | 16 | 329 | 6.4 | 19.3 | 0.00 | 0.00 | 0.00 | 41 | 1015.8 |
| 20260509194053 | 15 | 355 | 8.0 | 17.7 | 0.00 | 0.00 | 0.00 | 42 | 1015.7 |
| 20260509193553 | 15 | 306 | 8.0 | 19.3 | 0.00 | 0.00 | 0.00 | 40 | 1015.7 |
| 20260509193057 | 16 | 343 | 8.0 | 19.3 | 0.00 | 0.00 | 0.00 | 40 | 1015.7 |
| 20260509192555 | 16 | 288 | 6.4 | 19.3 | 0.00 | 0.00 | 0.00 | 40 | 1015.7 |
| 20260509192053 | 16 | 343 | 4.8 | 19.3 | 0.00 | 0.00 | 0.00 | 41 | 1015.7 |
| 20260509191603 | 15 | 22 | 8.0 | 17.7 | 0.00 | 0.00 | 0.00 | 40 | 1015.5 |
| 20260509191055 | 16 | 33 | 6.4 | 19.3 | 0.00 | 0.00 | 0.00 | 40 | 1015.7 |
| 20260509190553 | 15 | 9 | 8.0 | 17.7 | 0.00 | 0.00 | 0.00 | 41 | 1015.6 |
| 20260509190054 | 15 | 51 | 4.8 | 14.5 | 0.00 | 0.00 | 0.00 | 41 | 1015.6 |
| 20260509185551 | 16 | 355 | 4.8 | 16.1 | 0.00 | 0.00 | 0.00 | 40 | 1015.8 |
| 20260509185050 | 16 | 360 | 6.4 | 16.1 | 0.00 | 0.00 | 0.00 | 40 | 1015.8 |
| 20260509184651 | 15 | 5 | 4.8 | 19.3 | 0.00 | 0.00 | 0.00 | 41 | 1015.7 |
| 20260509184045 | 15 | 315 | 4.8 | 19.3 | 0.00 | 0.00 | 0.00 | 40 | 1015.7 |
| 20260509183546 | 16 | 350 | 11.3 | 19.3 | 0.00 | 0.00 | 0.00 | 39 | 1015.7 |
| 20260509183052 | 16 | 5 | 6.4 | 20.9 | 0.00 | 0.00 | 0.00 | 39 | 1015.7 |
| 20260509182547 | 16 | 9 | 11.3 | 20.9 | 0.00 | 0.00 | 0.00 | 40 | 1015.6 |
| 20260509182044 | 15 | 28 | 6.4 | 17.7 | 0.00 | 0.00 | 0.00 | 40 | 1015.6 |
| 20260509181543 | 15 | 346 | 6.4 | 19.3 | 0.00 | 0.00 | 0.00 | 40 | 1015.6 |
| 20260509181043 | 15 | 17 | 9.7 | 19.3 | 0.00 | 0.00 | 0.00 | 40 | 1015.7 |
| 20260509180543 | 15 | 350 | 4.8 | 12.9 | 0.00 | 0.00 | 0.00 | 42 | 1015.5 |
| 20260509180042 | 15 | 10 | 6.4 | 19.3 | 0.00 | 0.00 | 0.00 | 41 | 1015.6 |
| 20260509175542 | 15 | 261 | 8.0 | 20.9 | 0.00 | 0.00 | 0.00 | 40 | 1015.7 |
| 20260509175043 | 15 | 28 | 6.4 | 22.5 | 0.00 | 0.00 | 0.00 | 41 | 1015.6 |
| 20260509174045 | 15 | 321 | 4.8 | 17.7 | 0.00 | 0.00 | 0.00 | 41 | 1015.6 |
| 20260509173541 | 15 | 28 | 6.4 | 17.7 | 0.00 | 0.00 | 0.00 | 41 | 1015.5 |
| 20260509173048 | 15 | 294 | 4.8 | 17.7 | 0.00 | 0.00 | 0.00 | 41 | 1015.6 |
| 20260509172543 | 14 | 360 | 9.7 | 17.7 | 0.00 | 0.00 | 0.00 | 42 | 1015.5 |
| 20260509172038 | 14 | 276 | 6.4 | 19.3 | 0.00 | 0.00 | 0.00 | 43 | 1015.3 |
| 20260509171538 | 14 | 338 | 4.8 | 17.7 | 0.00 | 0.00 | 0.00 | 42 | 1015.4 |
| 20260509171036 | 13 | 23 | 6.4 | 22.5 | 0.00 | 0.00 | 0.00 | 44 | 1015.2 |
| 20260509170537 | 13 | 51 | 9.7 | 22.5 | 0.00 | 0.00 | 0.00 | 42 | 1015.4 |
| 20260509170037 | 13 | 24 | 9.7 | 19.3 | 0.00 | 0.00 | 0.00 | 43 | 1015.5 |
| 20260509165536 | 13 | 37 | 6.4 | 17.7 | 0.00 | 0.00 | 0.00 | 42 | 1015.4 |